Dies, Texas
Current Conditions -  °F | °C
As of 12:55 PM on Friday 24 Oct 2014 (Local Time) from KJAS Reporting Station
Clear Clear  
Wind Chill: 72°   Ceiling: Unl
Heat Index: 72°   Visibility: 10mi
Dew Point: 47°   Wind: 6mph
Humidity: 41%   Direction: 340°NNW
Pressure: 30.17"   Gusts: NA
Location:  30.7643°N, 94.4448°W
Report Text: KJAS 241755Z AUTO 34005KT 10SM CLR 22/08 A3017 RMK AO2 T02200081
Loading
Personal Weather Stations






























Interactive Weather Map
Tropical Storm Tracking
New forecast layout! Learn more

10-Day Weather Forecast

Advertisements
Track Severe Weather on mobile